sensor_id;sensor_type;location;lat;lon;timestamp;P1;durP1;ratioP1;P2;durP2;ratioP2
69779;SDS011;57052;55.602;38.096;2022-08-19T00:01:13;7.60;;;3.60;;
69779;SDS011;57052;55.602;38.096;2022-08-19T00:03:39;4.95;;;3.00;;
69779;SDS011;57052;55.602;38.096;2022-08-19T00:06:04;6.25;;;3.53;;
69779;SDS011;57052;55.602;38.096;2022-08-19T00:08:30;7.57;;;3.72;;
69779;SDS011;57052;55.602;38.096;2022-08-19T00:10:56;6.40;;;3.42;;
69779;SDS011;57052;55.602;38.096;2022-08-19T00:13:22;6.45;;;3.63;;
69779;SDS011;57052;55.602;38.096;2022-08-19T00:15:48;12.93;;;3.78;;
69779;SDS011;57052;55.602;38.096;2022-08-19T00:18:13;8.68;;;3.95;;
69779;SDS011;57052;55.602;38.096;2022-08-19T00:20:39;6.40;;;3.92;;
69779;SDS011;57052;55.602;38.096;2022-08-19T00:23:05;6.72;;;4.00;;
69779;SDS011;57052;55.602;38.096;2022-08-19T00:25:31;10.07;;;4.20;;
69779;SDS011;57052;55.602;38.096;2022-08-19T00:27:58;9.63;;;4.68;;
69779;SDS011;57052;55.602;38.096;2022-08-19T00:30:24;10.63;;;5.03;;
69779;SDS011;57052;55.602;38.096;2022-08-19T00:32:52;13.57;;;4.88;;
69779;SDS011;57052;55.602;38.096;2022-08-19T00:35:20;7.75;;;4.95;;
69779;SDS011;57052;55.602;38.096;2022-08-19T00:37:47;9.05;;;5.05;;
69779;SDS011;57052;55.602;38.096;2022-08-19T00:40:13;8.63;;;5.10;;
69779;SDS011;57052;55.602;38.096;2022-08-19T00:42:40;8.60;;;4.60;;
69779;SDS011;57052;55.602;38.096;2022-08-19T00:45:10;8.48;;;5.22;;
69779;SDS011;57052;55.602;38.096;2022-08-19T00:47:38;8.25;;;4.88;;
69779;SDS011;57052;55.602;38.096;2022-08-19T00:50:04;9.32;;;4.70;;
69779;SDS011;57052;55.602;38.096;2022-08-19T00:52:35;7.93;;;4.25;;
69779;SDS011;57052;55.602;38.096;2022-08-19T00:55:05;5.63;;;4.05;;
69779;SDS011;57052;55.602;38.096;2022-08-19T00:57:37;8.05;;;3.70;;
69779;SDS011;57052;55.602;38.096;2022-08-19T01:00:06;6.32;;;3.63;;
69779;SDS011;57052;55.602;38.096;2022-08-19T01:02:36;8.02;;;3.90;;
69779;SDS011;57052;55.602;38.096;2022-08-19T01:05:05;8.95;;;3.47;;
69779;SDS011;57052;55.602;38.096;2022-08-19T01:07:33;5.22;;;3.10;;
69779;SDS011;57052;55.602;38.096;2022-08-19T01:10:00;6.05;;;3.25;;
69779;SDS011;57052;55.602;38.096;2022-08-19T01:12:26;6.30;;;3.20;;
69779;SDS011;57052;55.602;38.096;2022-08-19T01:14:52;11.45;;;3.50;;
69779;SDS011;57052;55.602;38.096;2022-08-19T01:17:20;9.05;;;3.22;;
69779;SDS011;57052;55.602;38.096;2022-08-19T01:19:47;5.18;;;3.20;;
69779;SDS011;57052;55.602;38.096;2022-08-19T01:24:52;5.68;;;2.72;;
69779;SDS011;57052;55.602;38.096;2022-08-19T01:27:17;6.43;;;3.28;;
69779;SDS011;57052;55.602;38.096;2022-08-19T01:29:43;5.03;;;3.08;;
69779;SDS011;57052;55.602;38.096;2022-08-19T01:32:11;7.03;;;2.83;;
69779;SDS011;57052;55.602;38.096;2022-08-19T01:34:39;7.50;;;3.35;;
69779;SDS011;57052;55.602;38.096;2022-08-19T01:37:06;6.03;;;3.10;;
69779;SDS011;57052;55.602;38.096;2022-08-19T01:39:36;5.90;;;2.85;;
69779;SDS011;57052;55.602;38.096;2022-08-19T01:42:02;4.57;;;2.75;;
69779;SDS011;57052;55.602;38.096;2022-08-19T01:44:29;5.47;;;2.90;;
69779;SDS011;57052;55.602;38.096;2022-08-19T01:46:55;4.95;;;2.70;;
69779;SDS011;57052;55.602;38.096;2022-08-19T01:49:21;6.38;;;3.28;;
69779;SDS011;57052;55.602;38.096;2022-08-19T01:51:49;10.07;;;3.55;;
69779;SDS011;57052;55.602;38.096;2022-08-19T01:54:15;7.05;;;3.28;;
69779;SDS011;57052;55.602;38.096;2022-08-19T01:56:43;7.22;;;3.03;;
69779;SDS011;57052;55.602;38.096;2022-08-19T01:59:14;5.25;;;2.85;;
69779;SDS011;57052;55.602;38.096;2022-08-19T02:01:42;7.22;;;3.15;;
69779;SDS011;57052;55.602;38.096;2022-08-19T02:04:08;6.32;;;2.88;;
69779;SDS011;57052;55.602;38.096;2022-08-19T02:06:34;3.90;;;2.53;;
69779;SDS011;57052;55.602;38.096;2022-08-19T02:09:00;7.53;;;2.70;;
69779;SDS011;57052;55.602;38.096;2022-08-19T02:11:29;8.38;;;2.85;;
69779;SDS011;57052;55.602;38.096;2022-08-19T02:13:59;6.22;;;3.03;;
69779;SDS011;57052;55.602;38.096;2022-08-19T02:16:27;7.50;;;2.80;;
69779;SDS011;57052;55.602;38.096;2022-08-19T02:18:54;7.57;;;3.42;;
69779;SDS011;57052;55.602;38.096;2022-08-19T02:21:20;5.40;;;2.63;;
69779;SDS011;57052;55.602;38.096;2022-08-19T02:23:49;4.80;;;2.60;;
69779;SDS011;57052;55.602;38.096;2022-08-19T02:26:16;6.35;;;2.75;;
69779;SDS011;57052;55.602;38.096;2022-08-19T02:28:43;4.18;;;2.47;;
69779;SDS011;57052;55.602;38.096;2022-08-19T02:31:09;7.68;;;2.85;;
69779;SDS011;57052;55.602;38.096;2022-08-19T02:33:36;7.40;;;2.70;;
69779;SDS011;57052;55.602;38.096;2022-08-19T02:36:03;8.18;;;2.75;;
69779;SDS011;57052;55.602;38.096;2022-08-19T02:38:30;8.15;;;2.58;;
69779;SDS011;57052;55.602;38.096;2022-08-19T02:41:00;5.43;;;2.70;;
69779;SDS011;57052;55.602;38.096;2022-08-19T02:43:28;8.07;;;3.35;;
69779;SDS011;57052;55.602;38.096;2022-08-19T02:45:55;5.07;;;3.13;;
69779;SDS011;57052;55.602;38.096;2022-08-19T02:48:22;7.93;;;3.00;;
69779;SDS011;57052;55.602;38.096;2022-08-19T02:50:49;6.30;;;3.17;;
69779;SDS011;57052;55.602;38.096;2022-08-19T02:53:23;5.90;;;3.05;;
69779;SDS011;57052;55.602;38.096;2022-08-19T02:55:51;6.10;;;3.00;;
69779;SDS011;57052;55.602;38.096;2022-08-19T02:58:17;6.60;;;3.00;;
69779;SDS011;57052;55.602;38.096;2022-08-19T03:00:46;5.68;;;2.97;;
69779;SDS011;57052;55.602;38.096;2022-08-19T03:03:14;4.38;;;2.67;;
69779;SDS011;57052;55.602;38.096;2022-08-19T03:05:41;4.88;;;3.22;;
69779;SDS011;57052;55.602;38.096;2022-08-19T03:08:08;5.90;;;2.70;;
69779;SDS011;57052;55.602;38.096;2022-08-19T03:10:41;4.55;;;2.90;;
69779;SDS011;57052;55.602;38.096;2022-08-19T03:13:09;10.10;;;3.17;;
69779;SDS011;57052;55.602;38.096;2022-08-19T03:15:40;7.90;;;3.17;;
69779;SDS011;57052;55.602;38.096;2022-08-19T03:18:07;4.40;;;2.80;;
69779;SDS011;57052;55.602;38.096;2022-08-19T03:20:33;9.10;;;3.47;;
69779;SDS011;57052;55.602;38.096;2022-08-19T03:22:59;6.85;;;3.72;;
69779;SDS011;57052;55.602;38.096;2022-08-19T03:25:24;7.40;;;3.47;;
69779;SDS011;57052;55.602;38.096;2022-08-19T03:27:50;7.50;;;3.88;;
69779;SDS011;57052;55.602;38.096;2022-08-19T03:30:15;6.65;;;3.30;;
69779;SDS011;57052;55.602;38.096;2022-08-19T03:32:41;31.50;;;11.02;;
69779;SDS011;57052;55.602;38.096;2022-08-19T03:35:07;10.93;;;4.05;;
69779;SDS011;57052;55.602;38.096;2022-08-19T03:37:32;7.80;;;3.30;;
69779;SDS011;57052;55.602;38.096;2022-08-19T03:39:58;6.20;;;3.35;;
69779;SDS011;57052;55.602;38.096;2022-08-19T03:42:23;6.30;;;3.40;;
69779;SDS011;57052;55.602;38.096;2022-08-19T03:44:52;6.75;;;3.17;;
69779;SDS011;57052;55.602;38.096;2022-08-19T03:47:17;7.07;;;3.22;;
69779;SDS011;57052;55.602;38.096;2022-08-19T03:49:43;6.43;;;3.40;;
69779;SDS011;57052;55.602;38.096;2022-08-19T03:52:09;7.30;;;3.45;;
69779;SDS011;57052;55.602;38.096;2022-08-19T03:54:35;8.88;;;3.65;;
69779;SDS011;57052;55.602;38.096;2022-08-19T03:57:01;8.07;;;3.13;;
69779;SDS011;57052;55.602;38.096;2022-08-19T03:59:29;5.93;;;3.33;;
69779;SDS011;57052;55.602;38.096;2022-08-19T04:01:58;7.82;;;3.33;;
69779;SDS011;57052;55.602;38.096;2022-08-19T04:04:26;7.97;;;4.30;;
69779;SDS011;57052;55.602;38.096;2022-08-19T04:06:52;5.20;;;3.00;;
69779;SDS011;57052;55.602;38.096;2022-08-19T04:09:19;7.93;;;3.10;;
69779;SDS011;57052;55.602;38.096;2022-08-19T04:11:49;10.52;;;2.95;;
69779;SDS011;57052;55.602;38.096;2022-08-19T04:14:22;6.75;;;3.47;;
69779;SDS011;57052;55.602;38.096;2022-08-19T04:16:50;8.07;;;3.00;;
69779;SDS011;57052;55.602;38.096;2022-08-19T04:19:17;8.05;;;3.20;;
69779;SDS011;57052;55.602;38.096;2022-08-19T04:21:44;5.80;;;3.35;;
69779;SDS011;57052;55.602;38.096;2022-08-19T04:24:12;6.28;;;3.10;;
69779;SDS011;57052;55.602;38.096;2022-08-19T04:26:38;10.18;;;3.10;;
69779;SDS011;57052;55.602;38.096;2022-08-19T04:29:06;4.53;;;2.83;;
69779;SDS011;57052;55.602;38.096;2022-08-19T04:31:34;6.30;;;3.08;;
69779;SDS011;57052;55.602;38.096;2022-08-19T04:34:01;5.25;;;3.13;;
69779;SDS011;57052;55.602;38.096;2022-08-19T04:36:30;6.80;;;3.10;;
69779;SDS011;57052;55.602;38.096;2022-08-19T04:38:59;5.78;;;3.13;;
69779;SDS011;57052;55.602;38.096;2022-08-19T04:41:28;9.77;;;3.22;;
69779;SDS011;57052;55.602;38.096;2022-08-19T04:44:12;6.13;;;2.92;;
69779;SDS011;57052;55.602;38.096;2022-08-19T04:46:38;6.65;;;3.10;;
69779;SDS011;57052;55.602;38.096;2022-08-19T04:49:05;6.68;;;3.30;;
69779;SDS011;57052;55.602;38.096;2022-08-19T04:51:32;7.03;;;3.08;;
69779;SDS011;57052;55.602;38.096;2022-08-19T04:53:58;6.75;;;3.53;;
69779;SDS011;57052;55.602;38.096;2022-08-19T04:56:26;5.25;;;3.05;;
69779;SDS011;57052;55.602;38.096;2022-08-19T04:58:53;5.45;;;3.28;;
69779;SDS011;57052;55.602;38.096;2022-08-19T05:01:22;8.48;;;3.60;;
69779;SDS011;57052;55.602;38.096;2022-08-19T05:03:53;5.78;;;3.30;;
69779;SDS011;57052;55.602;38.096;2022-08-19T05:06:19;8.48;;;3.42;;
69779;SDS011;57052;55.602;38.096;2022-08-19T05:08:46;7.75;;;4.13;;
69779;SDS011;57052;55.602;38.096;2022-08-19T05:13:42;6.78;;;3.67;;
69779;SDS011;57052;55.602;38.096;2022-08-19T05:16:09;7.07;;;3.42;;
69779;SDS011;57052;55.602;38.096;2022-08-19T05:18:37;8.40;;;3.70;;
69779;SDS011;57052;55.602;38.096;2022-08-19T05:21:22;5.55;;;3.28;;
69779;SDS011;57052;55.602;38.096;2022-08-19T05:24:06;6.30;;;3.28;;
69779;SDS011;57052;55.602;38.096;2022-08-19T05:26:39;8.80;;;3.90;;
69779;SDS011;57052;55.602;38.096;2022-08-19T05:29:08;5.88;;;3.75;;
69779;SDS011;57052;55.602;38.096;2022-08-19T05:31:35;7.35;;;3.92;;
69779;SDS011;57052;55.602;38.096;2022-08-19T05:34:02;8.10;;;3.88;;
69779;SDS011;57052;55.602;38.096;2022-08-19T05:36:28;7.05;;;3.20;;
69779;SDS011;57052;55.602;38.096;2022-08-19T05:38:59;6.80;;;3.92;;
69779;SDS011;57052;55.602;38.096;2022-08-19T05:41:25;5.50;;;3.58;;
69779;SDS011;57052;55.602;38.096;2022-08-19T05:43:57;8.93;;;3.85;;
69779;SDS011;57052;55.602;38.096;2022-08-19T05:46:24;8.07;;;3.83;;
69779;SDS011;57052;55.602;38.096;2022-08-19T05:48:49;9.63;;;3.83;;
69779;SDS011;57052;55.602;38.096;2022-08-19T05:51:15;7.65;;;3.80;;
69779;SDS011;57052;55.602;38.096;2022-08-19T05:53:41;6.70;;;3.72;;
69779;SDS011;57052;55.602;38.096;2022-08-19T05:56:09;7.53;;;3.92;;
69779;SDS011;57052;55.602;38.096;2022-08-19T05:58:41;8.55;;;4.32;;
69779;SDS011;57052;55.602;38.096;2022-08-19T06:01:11;7.88;;;3.92;;
69779;SDS011;57052;55.602;38.096;2022-08-19T06:03:38;8.82;;;4.22;;
69779;SDS011;57052;55.602;38.096;2022-08-19T06:06:05;6.75;;;3.90;;
69779;SDS011;57052;55.602;38.096;2022-08-19T06:08:33;7.10;;;3.92;;
69779;SDS011;57052;55.602;38.096;2022-08-19T06:11:11;7.60;;;4.00;;
69779;SDS011;57052;55.602;38.096;2022-08-19T06:13:41;10.13;;;4.43;;
69779;SDS011;57052;55.602;38.096;2022-08-19T06:16:08;6.65;;;4.10;;
69779;SDS011;57052;55.602;38.096;2022-08-19T06:18:33;8.27;;;4.28;;
69779;SDS011;57052;55.602;38.096;2022-08-19T06:20:59;7.80;;;4.57;;
69779;SDS011;57052;55.602;38.096;2022-08-19T06:23:29;6.15;;;3.85;;
69779;SDS011;57052;55.602;38.096;2022-08-19T06:25:55;8.15;;;4.25;;
69779;SDS011;57052;55.602;38.096;2022-08-19T06:28:21;9.05;;;4.20;;
69779;SDS011;57052;55.602;38.096;2022-08-19T06:30:49;8.57;;;4.22;;
69779;SDS011;57052;55.602;38.096;2022-08-19T06:33:15;7.47;;;4.30;;
69779;SDS011;57052;55.602;38.096;2022-08-19T06:35:41;6.82;;;4.15;;
69779;SDS011;57052;55.602;38.096;2022-08-19T06:38:07;11.32;;;4.38;;
69779;SDS011;57052;55.602;38.096;2022-08-19T06:40:34;8.13;;;4.13;;
69779;SDS011;57052;55.602;38.096;2022-08-19T06:43:01;7.85;;;3.90;;
69779;SDS011;57052;55.602;38.096;2022-08-19T06:45:27;6.95;;;3.90;;
69779;SDS011;57052;55.602;38.096;2022-08-19T06:47:53;9.25;;;4.10;;
69779;SDS011;57052;55.602;38.096;2022-08-19T06:50:24;6.88;;;3.90;;
69779;SDS011;57052;55.602;38.096;2022-08-19T06:52:50;6.85;;;4.00;;
69779;SDS011;57052;55.602;38.096;2022-08-19T06:55:16;8.50;;;3.92;;
69779;SDS011;57052;55.602;38.096;2022-08-19T06:57:42;6.20;;;3.78;;
69779;SDS011;57052;55.602;38.096;2022-08-19T07:00:09;7.70;;;3.95;;
69779;SDS011;57052;55.602;38.096;2022-08-19T07:02:42;8.88;;;3.50;;
69779;SDS011;57052;55.602;38.096;2022-08-19T07:05:08;6.25;;;3.45;;
69779;SDS011;57052;55.602;38.096;2022-08-19T07:07:34;5.40;;;3.47;;
69779;SDS011;57052;55.602;38.096;2022-08-19T07:10:00;6.70;;;3.75;;
69779;SDS011;57052;55.602;38.096;2022-08-19T07:12:27;6.82;;;3.78;;
69779;SDS011;57052;55.602;38.096;2022-08-19T07:14:56;7.55;;;3.58;;
69779;SDS011;57052;55.602;38.096;2022-08-19T07:17:23;8.38;;;3.80;;
69779;SDS011;57052;55.602;38.096;2022-08-19T07:19:48;8.07;;;3.50;;
69779;SDS011;57052;55.602;38.096;2022-08-19T07:22:15;5.95;;;3.35;;
69779;SDS011;57052;55.602;38.096;2022-08-19T07:24:41;4.75;;;3.30;;
69779;SDS011;57052;55.602;38.096;2022-08-19T07:27:06;5.32;;;3.03;;
69779;SDS011;57052;55.602;38.096;2022-08-19T07:29:33;5.15;;;3.25;;
69779;SDS011;57052;55.602;38.096;2022-08-19T07:32:00;7.28;;;3.30;;
69779;SDS011;57052;55.602;38.096;2022-08-19T07:34:27;6.25;;;3.30;;
69779;SDS011;57052;55.602;38.096;2022-08-19T07:36:55;4.05;;;2.95;;
69779;SDS011;57052;55.602;38.096;2022-08-19T07:39:29;6.25;;;3.50;;
69779;SDS011;57052;55.602;38.096;2022-08-19T07:41:57;6.25;;;2.97;;
69779;SDS011;57052;55.602;38.096;2022-08-19T07:44:24;6.43;;;3.35;;
69779;SDS011;57052;55.602;38.096;2022-08-19T07:46:52;6.32;;;3.10;;
69779;SDS011;57052;55.602;38.096;2022-08-19T07:49:21;5.32;;;3.03;;
69779;SDS011;57052;55.602;38.096;2022-08-19T07:51:49;7.38;;;3.03;;
69779;SDS011;57052;55.602;38.096;2022-08-19T07:54:18;8.18;;;3.03;;
69779;SDS011;57052;55.602;38.096;2022-08-19T07:56:45;6.45;;;3.05;;
69779;SDS011;57052;55.602;38.096;2022-08-19T07:59:11;9.20;;;2.88;;
69779;SDS011;57052;55.602;38.096;2022-08-19T08:01:37;4.85;;;3.00;;
69779;SDS011;57052;55.602;38.096;2022-08-19T08:04:05;5.78;;;3.00;;
69779;SDS011;57052;55.602;38.096;2022-08-19T08:06:50;7.10;;;4.15;;
69779;SDS011;57052;55.602;38.096;2022-08-19T08:09:37;8.05;;;3.30;;
69779;SDS011;57052;55.602;38.096;2022-08-19T08:12:06;9.68;;;3.30;;
69779;SDS011;57052;55.602;38.096;2022-08-19T08:14:41;5.38;;;3.00;;
69779;SDS011;57052;55.602;38.096;2022-08-19T08:17:11;8.40;;;2.97;;
69779;SDS011;57052;55.602;38.096;2022-08-19T08:19:37;11.23;;;3.30;;
69779;SDS011;57052;55.602;38.096;2022-08-19T08:22:06;5.82;;;3.10;;
69779;SDS011;57052;55.602;38.096;2022-08-19T08:24:33;6.03;;;3.10;;
69779;SDS011;57052;55.602;38.096;2022-08-19T08:27:01;5.80;;;3.20;;
69779;SDS011;57052;55.602;38.096;2022-08-19T08:29:28;6.35;;;3.20;;
69779;SDS011;57052;55.602;38.096;2022-08-19T08:31:55;6.78;;;3.10;;
69779;SDS011;57052;55.602;38.096;2022-08-19T08:34:21;5.07;;;3.13;;
69779;SDS011;57052;55.602;38.096;2022-08-19T08:36:47;6.00;;;2.97;;
69779;SDS011;57052;55.602;38.096;2022-08-19T08:39:14;6.82;;;3.45;;
69779;SDS011;57052;55.602;38.096;2022-08-19T08:41:47;5.82;;;3.00;;
69779;SDS011;57052;55.602;38.096;2022-08-19T08:47:01;5.10;;;3.00;;
69779;SDS011;57052;55.602;38.096;2022-08-19T08:49:32;5.20;;;3.33;;
69779;SDS011;57052;55.602;38.096;2022-08-19T08:54:47;9.35;;;2.90;;
69779;SDS011;57052;55.602;38.096;2022-08-19T08:57:17;5.95;;;2.75;;
69779;SDS011;57052;55.602;38.096;2022-08-19T08:59:48;5.32;;;2.90;;
69779;SDS011;57052;55.602;38.096;2022-08-19T09:02:18;4.70;;;2.90;;
69779;SDS011;57052;55.602;38.096;2022-08-19T09:04:44;8.35;;;2.90;;
69779;SDS011;57052;55.602;38.096;2022-08-19T09:10:02;8.98;;;2.53;;
69779;SDS011;57052;55.602;38.096;2022-08-19T09:15:30;3.92;;;2.40;;
69779;SDS011;57052;55.602;38.096;2022-08-19T09:18:02;7.53;;;2.50;;
69779;SDS011;57052;55.602;38.096;2022-08-19T09:20:29;4.35;;;2.33;;
69779;SDS011;57052;55.602;38.096;2022-08-19T09:22:56;4.63;;;2.50;;
69779;SDS011;57052;55.602;38.096;2022-08-19T09:25:23;3.55;;;2.47;;
69779;SDS011;57052;55.602;38.096;2022-08-19T09:27:50;4.80;;;2.63;;
69779;SDS011;57052;55.602;38.096;2022-08-19T09:30:26;6.10;;;2.50;;
69779;SDS011;57052;55.602;38.096;2022-08-19T09:32:53;7.32;;;2.58;;
69779;SDS011;57052;55.602;38.096;2022-08-19T09:35:21;10.52;;;2.38;;
69779;SDS011;57052;55.602;38.096;2022-08-19T09:37:48;6.55;;;2.50;;
69779;SDS011;57052;55.602;38.096;2022-08-19T09:40:14;5.00;;;2.50;;
69779;SDS011;57052;55.602;38.096;2022-08-19T09:42:41;3.15;;;2.17;;
69779;SDS011;57052;55.602;38.096;2022-08-19T09:45:12;5.43;;;2.40;;
69779;SDS011;57052;55.602;38.096;2022-08-19T09:47:39;5.90;;;2.30;;
69779;SDS011;57052;55.602;38.096;2022-08-19T09:50:06;4.47;;;2.47;;
69779;SDS011;57052;55.602;38.096;2022-08-19T09:52:32;4.28;;;2.30;;
69779;SDS011;57052;55.602;38.096;2022-08-19T09:55:05;4.80;;;2.30;;
69779;SDS011;57052;55.602;38.096;2022-08-19T09:57:32;6.30;;;2.30;;
69779;SDS011;57052;55.602;38.096;2022-08-19T09:59:58;7.03;;;2.28;;
69779;SDS011;57052;55.602;38.096;2022-08-19T10:02:24;6.28;;;2.45;;
69779;SDS011;57052;55.602;38.096;2022-08-19T10:04:50;5.45;;;2.40;;
69779;SDS011;57052;55.602;38.096;2022-08-19T10:07:35;4.82;;;2.70;;
69779;SDS011;57052;55.602;38.096;2022-08-19T10:10:03;5.68;;;2.42;;
69779;SDS011;57052;55.602;38.096;2022-08-19T10:12:31;3.80;;;2.22;;
69779;SDS011;57052;55.602;38.096;2022-08-19T10:14:58;7.55;;;2.63;;
69779;SDS011;57052;55.602;38.096;2022-08-19T10:17:24;5.90;;;2.70;;
69779;SDS011;57052;55.602;38.096;2022-08-19T10:19:51;8.43;;;2.92;;
69779;SDS011;57052;55.602;38.096;2022-08-19T10:22:17;6.30;;;2.75;;
69779;SDS011;57052;55.602;38.096;2022-08-19T10:24:44;4.75;;;2.47;;
69779;SDS011;57052;55.602;38.096;2022-08-19T10:27:11;5.22;;;3.05;;
69779;SDS011;57052;55.602;38.096;2022-08-19T10:29:38;7.10;;;3.20;;
69779;SDS011;57052;55.602;38.096;2022-08-19T10:32:04;4.22;;;2.75;;
69779;SDS011;57052;55.602;38.096;2022-08-19T10:34:32;4.95;;;3.13;;
69779;SDS011;57052;55.602;38.096;2022-08-19T10:36:58;5.25;;;2.70;;
69779;SDS011;57052;55.602;38.096;2022-08-19T10:39:25;5.13;;;2.75;;
69779;SDS011;57052;55.602;38.096;2022-08-19T10:41:53;5.80;;;2.60;;
69779;SDS011;57052;55.602;38.096;2022-08-19T10:44:21;4.53;;;2.83;;
69779;SDS011;57052;55.602;38.096;2022-08-19T10:46:48;5.63;;;3.20;;
69779;SDS011;57052;55.602;38.096;2022-08-19T10:49:13;3.88;;;2.60;;
69779;SDS011;57052;55.602;38.096;2022-08-19T10:51:39;5.30;;;2.55;;
69779;SDS011;57052;55.602;38.096;2022-08-19T10:54:25;5.00;;;2.63;;
69779;SDS011;57052;55.602;38.096;2022-08-19T10:57:10;4.43;;;2.50;;
69779;SDS011;57052;55.602;38.096;2022-08-19T10:59:36;7.68;;;2.80;;
69779;SDS011;57052;55.602;38.096;2022-08-19T11:02:04;5.80;;;3.17;;
69779;SDS011;57052;55.602;38.096;2022-08-19T11:04:35;5.53;;;2.60;;
69779;SDS011;57052;55.602;38.096;2022-08-19T11:07:02;4.55;;;2.20;;
69779;SDS011;57052;55.602;38.096;2022-08-19T11:09:29;4.82;;;2.50;;
69779;SDS011;57052;55.602;38.096;2022-08-19T11:11:56;5.15;;;2.60;;
69779;SDS011;57052;55.602;38.096;2022-08-19T11:14:21;4.63;;;2.53;;
69779;SDS011;57052;55.602;38.096;2022-08-19T11:16:51;4.88;;;2.60;;
69779;SDS011;57052;55.602;38.096;2022-08-19T11:19:21;6.00;;;2.70;;
69779;SDS011;57052;55.602;38.096;2022-08-19T11:21:48;5.50;;;2.60;;
69779;SDS011;57052;55.602;38.096;2022-08-19T11:24:19;7.65;;;2.50;;
69779;SDS011;57052;55.602;38.096;2022-08-19T11:26:47;6.37;;;2.73;;
69779;SDS011;57052;55.602;38.096;2022-08-19T11:29:14;6.07;;;2.72;;
69779;SDS011;57052;55.602;38.096;2022-08-19T11:31:42;6.07;;;2.70;;
69779;SDS011;57052;55.602;38.096;2022-08-19T11:34:11;6.53;;;2.60;;
69779;SDS011;57052;55.602;38.096;2022-08-19T11:36:39;4.38;;;2.50;;
69779;SDS011;57052;55.602;38.096;2022-08-19T11:39:08;5.38;;;2.40;;
69779;SDS011;57052;55.602;38.096;2022-08-19T11:41:35;6.00;;;2.45;;
69779;SDS011;57052;55.602;38.096;2022-08-19T11:44:01;6.68;;;2.40;;
69779;SDS011;57052;55.602;38.096;2022-08-19T11:46:28;5.97;;;2.60;;
69779;SDS011;57052;55.602;38.096;2022-08-19T11:48:55;5.55;;;2.50;;
69779;SDS011;57052;55.602;38.096;2022-08-19T11:51:23;4.68;;;2.60;;
69779;SDS011;57052;55.602;38.096;2022-08-19T11:53:50;6.45;;;2.60;;
69779;SDS011;57052;55.602;38.096;2022-08-19T11:56:17;5.20;;;2.83;;
69779;SDS011;57052;55.602;38.096;2022-08-19T11:58:43;5.75;;;2.63;;
69779;SDS011;57052;55.602;38.096;2022-08-19T12:01:13;6.13;;;2.75;;
69779;SDS011;57052;55.602;38.096;2022-08-19T12:03:44;5.13;;;2.78;;
69779;SDS011;57052;55.602;38.096;2022-08-19T12:06:13;6.65;;;3.05;;
69779;SDS011;57052;55.602;38.096;2022-08-19T12:08:40;6.25;;;2.92;;
69779;SDS011;57052;55.602;38.096;2022-08-19T12:11:08;5.55;;;3.13;;
69779;SDS011;57052;55.602;38.096;2022-08-19T12:13:35;7.63;;;2.90;;
69779;SDS011;57052;55.602;38.096;2022-08-19T12:16:06;6.85;;;2.63;;
69779;SDS011;57052;55.602;38.096;2022-08-19T12:18:38;4.10;;;2.40;;
69779;SDS011;57052;55.602;38.096;2022-08-19T12:21:04;7.60;;;2.80;;
69779;SDS011;57052;55.602;38.096;2022-08-19T12:23:30;5.15;;;2.70;;
69779;SDS011;57052;55.602;38.096;2022-08-19T12:25:55;7.25;;;2.92;;
69779;SDS011;57052;55.602;38.096;2022-08-19T12:28:22;4.97;;;2.55;;
69779;SDS011;57052;55.602;38.096;2022-08-19T12:30:49;9.15;;;2.80;;
69779;SDS011;57052;55.602;38.096;2022-08-19T12:33:16;4.43;;;2.60;;
69779;SDS011;57052;55.602;38.096;2022-08-19T12:35:43;5.22;;;2.42;;
69779;SDS011;57052;55.602;38.096;2022-08-19T12:38:14;5.25;;;2.88;;
69779;SDS011;57052;55.602;38.096;2022-08-19T12:40:40;4.35;;;2.65;;
69779;SDS011;57052;55.602;38.096;2022-08-19T12:43:06;4.32;;;2.60;;
69779;SDS011;57052;55.602;38.096;2022-08-19T12:45:33;5.35;;;2.58;;
69779;SDS011;57052;55.602;38.096;2022-08-19T12:47:59;5.60;;;2.65;;
69779;SDS011;57052;55.602;38.096;2022-08-19T12:50:25;5.45;;;2.80;;
69779;SDS011;57052;55.602;38.096;2022-08-19T12:52:50;8.45;;;3.33;;
69779;SDS011;57052;55.602;38.096;2022-08-19T12:55:16;6.93;;;2.65;;
69779;SDS011;57052;55.602;38.096;2022-08-19T12:57:43;4.75;;;2.70;;
69779;SDS011;57052;55.602;38.096;2022-08-19T13:00:11;8.38;;;3.10;;
69779;SDS011;57052;55.602;38.096;2022-08-19T13:02:39;5.25;;;3.05;;
69779;SDS011;57052;55.602;38.096;2022-08-19T13:05:10;6.00;;;3.03;;
69779;SDS011;57052;55.602;38.096;2022-08-19T13:07:38;4.82;;;3.10;;
69779;SDS011;57052;55.602;38.096;2022-08-19T13:10:06;8.50;;;2.92;;
69779;SDS011;57052;55.602;38.096;2022-08-19T13:12:33;8.45;;;2.70;;
69779;SDS011;57052;55.602;38.096;2022-08-19T13:14:59;8.25;;;4.07;;
69779;SDS011;57052;55.602;38.096;2022-08-19T13:17:25;13.65;;;4.60;;
69779;SDS011;57052;55.602;38.096;2022-08-19T13:19:50;7.82;;;4.03;;
69779;SDS011;57052;55.602;38.096;2022-08-19T13:22:16;10.45;;;4.38;;
69779;SDS011;57052;55.602;38.096;2022-08-19T13:24:42;8.73;;;3.70;;
69779;SDS011;57052;55.602;38.096;2022-08-19T13:27:08;7.00;;;3.20;;
69779;SDS011;57052;55.602;38.096;2022-08-19T13:29:33;7.70;;;3.58;;
69779;SDS011;57052;55.602;38.096;2022-08-19T13:32:18;7.30;;;3.65;;
69779;SDS011;57052;55.602;38.096;2022-08-19T13:35:03;7.85;;;3.50;;
69779;SDS011;57052;55.602;38.096;2022-08-19T13:37:29;7.05;;;3.40;;
69779;SDS011;57052;55.602;38.096;2022-08-19T13:40:28;7.13;;;3.85;;
69779;SDS011;57052;55.602;38.096;2022-08-19T13:42:54;12.20;;;5.90;;
69779;SDS011;57052;55.602;38.096;2022-08-19T13:45:21;12.40;;;5.70;;
69779;SDS011;57052;55.602;38.096;2022-08-19T13:47:50;10.43;;;6.10;;
69779;SDS011;57052;55.602;38.096;2022-08-19T13:50:20;11.13;;;6.60;;
69779;SDS011;57052;55.602;38.096;2022-08-19T13:52:49;9.38;;;6.80;;
69779;SDS011;57052;55.602;38.096;2022-08-19T13:55:15;9.38;;;6.43;;
69779;SDS011;57052;55.602;38.096;2022-08-19T13:57:41;10.38;;;6.72;;
69779;SDS011;57052;55.602;38.096;2022-08-19T14:00:09;10.70;;;7.43;;
69779;SDS011;57052;55.602;38.096;2022-08-19T14:02:40;15.70;;;8.93;;
69779;SDS011;57052;55.602;38.096;2022-08-19T14:05:08;15.88;;;9.30;;
69779;SDS011;57052;55.602;38.096;2022-08-19T14:07:36;11.68;;;8.25;;
69779;SDS011;57052;55.602;38.096;2022-08-19T14:10:06;13.63;;;9.10;;
69779;SDS011;57052;55.602;38.096;2022-08-19T14:12:33;13.38;;;8.70;;
69779;SDS011;57052;55.602;38.096;2022-08-19T14:14:59;10.80;;;6.93;;
69779;SDS011;57052;55.602;38.096;2022-08-19T14:17:25;11.73;;;7.20;;
69779;SDS011;57052;55.602;38.096;2022-08-19T14:19:57;10.23;;;6.30;;
69779;SDS011;57052;55.602;38.096;2022-08-19T14:22:25;11.63;;;6.00;;
69779;SDS011;57052;55.602;38.096;2022-08-19T14:24:51;8.15;;;6.35;;
69779;SDS011;57052;55.602;38.096;2022-08-19T14:27:16;10.90;;;6.10;;
69779;SDS011;57052;55.602;38.096;2022-08-19T14:29:42;8.70;;;5.10;;
69779;SDS011;57052;55.602;38.096;2022-08-19T14:32:07;9.80;;;5.45;;
69779;SDS011;57052;55.602;38.096;2022-08-19T14:34:33;9.68;;;5.40;;
69779;SDS011;57052;55.602;38.096;2022-08-19T14:36:59;9.15;;;4.95;;
69779;SDS011;57052;55.602;38.096;2022-08-19T14:39:25;9.93;;;4.18;;
69779;SDS011;57052;55.602;38.096;2022-08-19T14:41:50;6.35;;;4.40;;
69779;SDS011;57052;55.602;38.096;2022-08-19T14:44:16;7.43;;;3.90;;
69779;SDS011;57052;55.602;38.096;2022-08-19T14:46:41;7.18;;;4.20;;
69779;SDS011;57052;55.602;38.096;2022-08-19T14:49:07;8.90;;;4.03;;
69779;SDS011;57052;55.602;38.096;2022-08-19T14:51:33;9.10;;;3.92;;
69779;SDS011;57052;55.602;38.096;2022-08-19T14:53:58;8.80;;;4.10;;